ADDS METAR Data INFO
IDs: Format: Raw Decoded Include TAF

Data at: 2344 UTC 26 May 2018

METAR for:KRYW (Lago Vista/Allen Arp, TX, US)
Text:KRYW 262335Z AUTO 14004KT 10SM CLR 35/17 A2978 RMK AO2 T03480165
Temperature: 34.8°C ( 95°F)
Dewpoint: 16.5°C ( 62°F) [RH = 34%]
Pressure (altimeter):29.78 inches Hg (1008.5 mb)
Winds:from the SE (140 degrees) at 5 MPH (4 knots; 2.1 m/s)
Visibility:10 or more sm (16+ km)
Ceiling:at least 12,000 feet AGL
Clouds:sky clear below 12,000 feet AGL
QC Flag:automated observation with no human augmentation